Gowen, Michigan
Current Conditions -  °F | °C
As of 1:54 PM on Sunday 23 Nov 2014 (Local Time) from KY70 Reporting Station
Scattered Clouds Scattered Clouds  
Wind Chill: 50°   Ceiling: Unl
Heat Index: 50°   Visibility: 10mi
Dew Point: 47°   Wind: 7mph
Humidity: 89%   Direction: 170°S
Pressure: 29.69"   Gusts: NA
Location:  43.25°N, 85.3°W
Report Text: KY70 231854Z AUTO 17006KT 10SM SCT110 10/08 A2969 RMK AO2 T01000083
Loading
Personal Weather Stations






























Interactive Weather Map New forecast layout! Learn more

10-Day Weather Forecast

Advertisements
Track Severe Weather on mobile